createdAt,value
2022-08-22T04:02:58.862Z,19.26
2022-08-22T04:05:44.273Z,19.22
2022-08-22T04:08:36.304Z,19.17
2022-08-22T04:11:44.294Z,19.08
2022-08-22T04:14:35.972Z,19.00
2022-08-22T04:17:30.258Z,18.96
2022-08-22T04:20:21.956Z,18.96
2022-08-22T04:23:23.957Z,18.97
2022-08-22T04:25:54.414Z,18.94
2022-08-22T04:28:30.625Z,18.91
2022-08-22T04:31:05.878Z,18.84
2022-08-22T04:33:41.607Z,18.83
2022-08-22T04:36:17.589Z,18.87
2022-08-22T04:38:49.539Z,18.88
2022-08-22T04:41:24.457Z,18.87
2022-08-22T04:43:57.593Z,18.81
2022-08-22T04:46:36.734Z,18.70
2022-08-22T04:49:09.607Z,18.58
2022-08-22T04:51:46.108Z,18.67
2022-08-22T04:54:39.509Z,18.58
2022-08-22T04:57:22.050Z,18.39
2022-08-22T04:59:51.177Z,18.30
2022-08-22T05:02:24.078Z,18.25
2022-08-22T05:04:59.071Z,18.21
2022-08-22T05:07:36.241Z,18.20
2022-08-22T05:10:12.031Z,18.20
2022-08-22T05:12:44.407Z,18.18
2022-08-22T05:15:23.262Z,18.15
2022-08-22T05:17:54.173Z,18.15
2022-08-22T05:20:26.292Z,18.13
2022-08-22T05:22:59.397Z,18.19
2022-08-22T05:25:33.536Z,18.22
2022-08-22T05:28:12.054Z,18.27
2022-08-22T05:30:40.820Z,18.23
2022-08-22T05:33:19.419Z,18.21
2022-08-22T05:35:55.825Z,18.22
2022-08-22T05:38:31.406Z,18.25
2022-08-22T05:41:06.618Z,18.34
2022-08-22T05:43:38.779Z,18.47
2022-08-22T05:46:10.126Z,18.59
2022-08-22T05:48:43.649Z,18.69
2022-08-22T05:51:19.732Z,18.76
2022-08-22T05:53:54.261Z,18.78
2022-08-22T05:56:30.413Z,18.80
2022-08-22T05:59:02.711Z,18.82
2022-08-22T06:01:43.494Z,18.82
2022-08-22T06:04:18.316Z,18.82
2022-08-22T06:06:53.793Z,18.85
2022-08-22T06:09:35.360Z,18.86
2022-08-22T06:12:16.465Z,18.88
2022-08-22T06:14:58.248Z,18.96
2022-08-22T06:17:31.986Z,19.06
2022-08-22T06:20:00.995Z,19.12
2022-08-22T06:22:33.734Z,19.10
2022-08-22T06:25:08.010Z,19.02
2022-08-22T06:27:36.416Z,19.11
2022-08-22T06:30:07.212Z,19.14
2022-08-22T06:32:58.938Z,19.21
2022-08-22T06:35:52.606Z,19.23
2022-08-22T06:38:21.432Z,19.28
2022-08-22T06:40:54.123Z,19.30
2022-08-22T06:43:24.603Z,19.37
2022-08-22T06:45:53.496Z,19.36
2022-08-22T06:48:24.473Z,19.51
2022-08-22T06:50:58.495Z,19.58
2022-08-22T06:53:32.492Z,19.57
2022-08-22T06:56:05.522Z,19.65
2022-08-22T06:58:38.319Z,19.70
2022-08-22T07:01:12.326Z,19.79
2022-08-22T07:03:44.843Z,19.87
2022-08-22T07:06:16.904Z,19.93
2022-08-22T07:08:45.178Z,20.05
2022-08-22T07:11:18.408Z,20.08
2022-08-22T07:13:53.491Z,20.17
2022-08-22T07:16:31.061Z,20.26
2022-08-22T07:19:00.720Z,20.31
2022-08-22T07:21:30.754Z,20.39
2022-08-22T07:24:01.974Z,20.43
2022-08-22T07:26:40.182Z,20.54
2022-08-22T07:29:19.599Z,20.57
2022-08-22T07:31:57.706Z,20.53
2022-08-22T07:34:37.517Z,20.66
2022-08-22T07:37:10.740Z,20.80
2022-08-22T07:39:50.206Z,20.88
2022-08-22T07:42:22.415Z,20.94
2022-08-22T07:45:10.038Z,21.03
2022-08-22T07:47:57.053Z,21.00
2022-08-22T07:50:29.809Z,21.11
2022-08-22T07:53:06.465Z,21.17
2022-08-22T07:55:34.857Z,21.24
2022-08-22T07:58:19.087Z,21.30
2022-08-22T08:00:49.847Z,21.38
2022-08-22T08:03:18.533Z,21.47
2022-08-22T08:05:46.636Z,21.52
2022-08-22T08:08:21.880Z,21.63
2022-08-22T08:10:52.104Z,21.69
2022-08-22T08:13:26.012Z,21.74
2022-08-22T08:15:53.842Z,21.76
2022-08-22T08:18:25.785Z,21.80
2022-08-22T08:20:57.724Z,21.85
2022-08-22T08:23:26.978Z,21.95
2022-08-22T08:26:03.129Z,22.03
2022-08-22T08:28:34.939Z,22.08
2022-08-22T08:31:19.150Z,22.06
2022-08-22T08:33:51.625Z,22.18
2022-08-22T08:36:34.114Z,22.27
2022-08-22T08:39:12.566Z,22.32
2022-08-22T08:42:27.031Z,22.39
2022-08-22T08:45:21.790Z,22.41
2022-08-22T08:48:19.889Z,22.48
2022-08-22T08:54:11.173Z,22.64
2022-08-22T08:56:51.320Z,22.70
2022-08-22T08:59:34.673Z,22.74
2022-08-22T09:02:38.538Z,22.76
2022-08-22T09:05:30.900Z,22.77
2022-08-22T09:08:21.147Z,22.84
2022-08-22T09:11:14.306Z,22.92
2022-08-22T09:13:55.639Z,22.94
2022-08-22T09:16:45.051Z,22.98
2022-08-22T09:19:45.822Z,23.00
2022-08-22T09:22:34.925Z,23.09
2022-08-22T09:25:28.687Z,23.18
2022-08-22T09:28:13.852Z,23.22
2022-08-22T09:31:32.706Z,23.21
2022-08-22T09:34:11.441Z,23.30
2022-08-22T09:37:02.749Z,23.35
2022-08-22T09:39:36.476Z,23.39
2022-08-22T09:40:15.239Z,22.54
2022-08-22T09:42:17.607Z,23.46
2022-08-22T09:44:58.661Z,23.55
2022-08-22T09:47:33.190Z,23.59
2022-08-22T09:50:14.306Z,23.61
2022-08-22T09:53:05.230Z,23.65
2022-08-22T09:55:45.840Z,23.75
2022-08-22T09:58:23.557Z,23.78
2022-08-22T10:00:56.029Z,23.79
2022-08-22T10:03:34.638Z,23.85
2022-08-22T10:06:13.182Z,23.91
2022-08-22T10:08:49.083Z,23.96
2022-08-22T10:11:26.887Z,23.98
2022-08-22T10:14:02.254Z,23.96
2022-08-22T10:16:41.254Z,23.98
2022-08-22T10:19:16.912Z,24.05
2022-08-22T10:22:11.150Z,24.06
2022-08-22T10:24:48.959Z,24.02
2022-08-22T10:27:29.702Z,24.01
2022-08-22T10:30:08.008Z,24.16
2022-08-22T10:32:43.061Z,24.19
2022-08-22T10:35:21.987Z,24.25
2022-08-22T10:37:59.990Z,24.24
2022-08-22T10:40:36.790Z,24.29
2022-08-22T10:43:12.798Z,24.44
2022-08-22T10:45:44.748Z,24.50
2022-08-22T10:48:35.578Z,24.51
2022-08-22T10:51:19.416Z,24.51
2022-08-22T10:54:00.286Z,24.54
2022-08-22T10:56:35.801Z,24.63
2022-08-22T10:59:13.817Z,24.66
2022-08-22T11:01:52.305Z,24.69
2022-08-22T11:04:40.882Z,24.78
2022-08-22T11:07:36.652Z,24.86
2022-08-22T11:10:16.316Z,24.86
2022-08-22T11:12:52.916Z,24.84
2022-08-22T11:15:43.856Z,24.92
2022-08-22T11:18:21.673Z,25.03
2022-08-22T11:21:00.042Z,25.03
2022-08-22T11:23:40.021Z,24.99
2022-08-22T11:26:30.125Z,24.97
2022-08-22T11:29:25.068Z,25.07
2022-08-22T11:32:07.744Z,25.21
2022-08-22T11:34:58.185Z,25.34
2022-08-22T11:37:47.298Z,25.44
2022-08-22T11:40:29.179Z,25.61
2022-08-22T11:43:06.438Z,25.67
2022-08-22T11:45:46.530Z,25.60
2022-08-22T11:48:24.309Z,25.63
2022-08-22T11:51:02.368Z,25.60
2022-08-22T11:53:47.887Z,25.63
2022-08-22T11:56:27.817Z,25.69
2022-08-22T11:59:03.209Z,25.92
2022-08-22T12:01:42.279Z,26.09
2022-08-22T12:04:16.932Z,26.06
2022-08-22T12:06:51.573Z,26.25
2022-08-22T12:09:30.637Z,26.63
2022-08-22T12:12:08.919Z,26.79
2022-08-22T12:14:43.216Z,26.99
2022-08-22T12:17:55.156Z,27.10
2022-08-22T12:20:45.386Z,26.93
2022-08-22T12:23:48.561Z,26.75
2022-08-22T12:26:26.856Z,26.56
2022-08-22T12:29:15.064Z,26.37
2022-08-22T12:32:27.774Z,26.12
2022-08-22T12:35:13.876Z,26.34
2022-08-22T12:38:03.063Z,26.69
2022-08-22T12:40:53.617Z,27.04
2022-08-22T12:43:39.953Z,27.18
2022-08-22T12:46:17.382Z,27.21
2022-08-22T12:48:57.843Z,27.32
2022-08-22T12:51:33.350Z,27.48
2022-08-22T12:54:28.980Z,27.66
2022-08-22T12:57:10.580Z,27.85
2022-08-22T12:59:55.764Z,28.05
2022-08-22T13:02:29.121Z,28.16
2022-08-22T13:05:00.787Z,28.17
2022-08-22T13:07:31.681Z,28.28
2022-08-22T13:10:05.004Z,28.18
2022-08-22T13:12:39.917Z,28.18
2022-08-22T13:15:29.681Z,28.26
2022-08-22T13:18:18.784Z,28.34
2022-08-22T13:20:51.725Z,28.43
2022-08-22T13:23:28.761Z,28.57
2022-08-22T13:26:09.297Z,28.46
2022-08-22T13:28:45.694Z,28.79
2022-08-22T13:31:25.320Z,28.94
2022-08-22T13:33:59.946Z,29.19
2022-08-22T13:36:31.256Z,29.30
2022-08-22T13:39:06.527Z,29.24
2022-08-22T13:41:44.258Z,29.30
2022-08-22T13:44:18.052Z,29.34
2022-08-22T13:47:13.222Z,29.34
2022-08-22T13:49:38.713Z,29.40
2022-08-22T13:52:28.846Z,29.51
2022-08-22T13:55:03.346Z,29.60
2022-08-22T13:57:42.953Z,29.69
2022-08-22T14:00:59.261Z,29.74
2022-08-22T14:03:36.434Z,29.38
2022-08-22T14:06:35.550Z,29.48
2022-08-22T14:09:17.412Z,29.16
2022-08-22T14:12:12.671Z,29.26
2022-08-22T14:14:46.094Z,29.08
2022-08-22T14:17:20.855Z,29.23
2022-08-22T14:19:59.561Z,29.36
2022-08-22T14:22:35.206Z,29.52
2022-08-22T14:25:08.486Z,29.71
2022-08-22T14:27:39.701Z,29.84
2022-08-22T14:30:15.605Z,29.98
2022-08-22T14:32:48.674Z,30.05
2022-08-22T14:35:34.196Z,30.09
2022-08-22T14:38:21.510Z,30.07
2022-08-22T14:41:00.429Z,30.01
2022-08-22T14:43:49.237Z,30.05
2022-08-22T14:46:24.016Z,29.91
2022-08-22T14:49:14.409Z,29.53
2022-08-22T14:51:50.847Z,29.25
2022-08-22T14:54:22.084Z,29.09
2022-08-22T14:56:52.690Z,28.93
2022-08-22T14:59:33.117Z,28.73
2022-08-22T15:02:06.777Z,28.65
2022-08-22T15:04:38.321Z,28.60
2022-08-22T15:07:09.017Z,28.50
2022-08-22T15:09:41.603Z,28.47
2022-08-22T15:12:22.330Z,28.43
2022-08-22T15:14:52.931Z,28.33
2022-08-22T15:17:39.933Z,28.26
2022-08-22T15:20:27.649Z,28.14
2022-08-22T15:23:03.303Z,28.03
2022-08-22T15:25:41.155Z,27.98
2022-08-22T15:28:20.324Z,27.96
2022-08-22T15:30:59.890Z,27.91
2022-08-22T15:33:33.592Z,27.88
2022-08-22T15:36:16.283Z,27.85
2022-08-22T15:38:48.798Z,27.82
2022-08-22T15:41:38.331Z,27.77
2022-08-22T15:44:14.847Z,27.71
2022-08-22T15:47:03.799Z,27.64
2022-08-22T15:49:36.104Z,27.62
2022-08-22T15:52:15.010Z,27.53
2022-08-22T15:55:21.150Z,27.48
2022-08-22T15:57:59.975Z,27.46
2022-08-22T16:00:34.937Z,27.43
2022-08-22T16:03:09.375Z,27.40
2022-08-22T16:05:54.567Z,27.40
2022-08-22T16:08:27.557Z,27.35
2022-08-22T16:11:18.822Z,27.33
2022-08-22T16:13:48.116Z,27.27
2022-08-22T16:16:49.034Z,27.23
2022-08-22T16:19:21.781Z,27.21
2022-08-22T16:22:10.280Z,27.19
2022-08-22T16:25:10.329Z,27.20
2022-08-22T16:27:53.011Z,27.18
2022-08-22T16:30:34.795Z,27.15
2022-08-22T16:33:04.411Z,27.10
2022-08-22T16:36:25.692Z,27.05
2022-08-22T16:38:57.810Z,27.01
2022-08-22T16:41:30.658Z,26.93
2022-08-22T16:44:40.325Z,26.88
2022-08-22T16:47:13.906Z,26.86
2022-08-22T16:49:56.866Z,26.84
2022-08-22T16:52:54.382Z,26.81
2022-08-22T16:55:59.104Z,26.77
2022-08-22T16:58:57.744Z,26.74
2022-08-22T17:01:41.196Z,26.72
2022-08-22T17:04:20.925Z,26.70
2022-08-22T17:07:02.122Z,26.67
2022-08-22T17:10:00.660Z,26.64
2022-08-22T17:12:45.268Z,26.61
2022-08-22T17:15:28.957Z,26.59
2022-08-22T17:18:14.865Z,26.59
2022-08-22T17:20:50.650Z,26.53
2022-08-22T17:23:40.354Z,26.51
2022-08-22T17:26:20.780Z,26.49
2022-08-22T17:29:04.378Z,26.52
2022-08-22T17:31:44.292Z,26.55
2022-08-22T17:34:26.526Z,26.58
2022-08-22T17:37:07.713Z,26.55
2022-08-22T17:40:03.552Z,26.54
2022-08-22T17:43:04.639Z,26.53
2022-08-22T17:45:47.826Z,26.53
2022-08-22T17:48:21.931Z,26.50
2022-08-22T17:51:17.975Z,26.49
2022-08-22T17:54:14.631Z,26.47
2022-08-22T17:57:05.458Z,26.42
2022-08-22T17:59:53.109Z,26.36
2022-08-22T18:02:29.843Z,26.30
2022-08-22T18:05:10.686Z,26.22
2022-08-22T18:07:56.474Z,26.17
2022-08-22T18:10:44.194Z,26.09
2022-08-22T18:13:17.109Z,26.05
2022-08-22T18:15:51.909Z,26.04
2022-08-22T18:18:31.998Z,26.00
2022-08-22T18:21:20.423Z,25.95
2022-08-22T18:24:04.468Z,25.87
2022-08-22T18:26:45.082Z,25.84
2022-08-22T18:29:17.290Z,25.77
2022-08-22T18:31:50.740Z,25.72
2022-08-22T18:34:26.818Z,25.69
2022-08-22T18:37:04.260Z,25.66
2022-08-22T18:39:42.399Z,25.63
2022-08-22T18:42:28.354Z,25.61
2022-08-22T18:44:56.187Z,25.60
2022-08-22T18:47:27.719Z,25.55
2022-08-22T18:49:57.953Z,25.53
2022-08-22T18:52:39.318Z,25.46
2022-08-22T18:55:23.140Z,25.44
2022-08-22T18:58:05.988Z,25.43
2022-08-22T19:00:54.263Z,25.33
2022-08-22T19:03:40.705Z,25.26
2022-08-22T19:06:29.044Z,25.21
2022-08-22T19:09:23.280Z,25.18
2022-08-22T19:12:03.657Z,25.12
2022-08-22T19:14:55.223Z,25.04
2022-08-22T19:17:55.804Z,25.03
2022-08-22T19:20:47.571Z,24.96
2022-08-22T19:23:48.041Z,24.83
2022-08-22T19:26:44.213Z,24.85
2022-08-22T19:29:49.490Z,24.80
2022-08-22T19:32:46.996Z,24.71
2022-08-22T19:35:20.909Z,24.69
2022-08-22T19:37:53.656Z,24.65
2022-08-22T19:40:50.091Z,24.60
2022-08-22T19:43:27.414Z,24.60
2022-08-22T19:45:56.328Z,24.60
2022-08-22T19:48:28.376Z,24.62
2022-08-22T19:51:14.335Z,24.49
2022-08-22T19:53:56.004Z,24.50
2022-08-22T19:56:37.880Z,24.56
2022-08-22T19:59:19.333Z,24.55
2022-08-22T20:02:03.702Z,24.43
2022-08-22T20:04:57.478Z,24.39
2022-08-22T20:07:43.158Z,24.43
2022-08-22T20:10:23.207Z,24.49
2022-08-22T20:13:04.017Z,24.46
2022-08-22T20:15:35.679Z,24.41
2022-08-22T20:18:12.103Z,24.38
2022-08-22T20:21:00.204Z,24.40
2022-08-22T20:23:32.185Z,24.37
2022-08-22T20:26:00.261Z,24.37
2022-08-22T20:28:44.310Z,24.38
2022-08-22T20:31:21.515Z,24.35
2022-08-22T20:33:56.375Z,24.34
2022-08-22T20:36:28.798Z,24.29
2022-08-22T20:39:02.803Z,24.33
2022-08-22T20:41:35.514Z,24.22
2022-08-22T20:44:12.371Z,24.23
2022-08-22T20:47:04.492Z,24.23
2022-08-22T20:49:37.383Z,24.21
2022-08-22T20:52:08.689Z,24.19
2022-08-22T20:54:40.377Z,24.12
2022-08-22T20:57:16.231Z,24.15
2022-08-22T20:59:52.772Z,24.05
2022-08-22T21:02:23.896Z,24.05
2022-08-22T21:04:57.379Z,24.02
2022-08-22T21:07:28.190Z,23.94
2022-08-22T21:10:22.623Z,23.94
2022-08-22T21:13:19.584Z,23.87
2022-08-22T21:15:49.554Z,23.74
2022-08-22T21:18:28.445Z,23.69
2022-08-22T21:21:07.042Z,23.66
2022-08-22T21:23:38.801Z,23.65
2022-08-22T21:26:11.086Z,23.50
2022-08-22T21:28:42.872Z,23.37
2022-08-22T21:31:14.070Z,23.33
2022-08-22T21:33:44.687Z,23.24
2022-08-22T21:36:15.974Z,23.34
2022-08-22T21:38:49.165Z,23.34
2022-08-22T21:41:27.136Z,23.32
2022-08-22T21:43:54.879Z,23.16
2022-08-22T21:46:28.559Z,23.06
2022-08-22T21:49:01.329Z,23.13
2022-08-22T21:51:33.759Z,23.04
2022-08-22T21:54:39.559Z,23.02
2022-08-22T21:57:34.673Z,22.96
2022-08-22T22:00:04.793Z,22.95
2022-08-22T22:02:36.807Z,22.86
2022-08-22T22:05:09.039Z,22.95
2022-08-22T22:07:38.539Z,22.98
2022-08-22T22:10:08.616Z,22.98
2022-08-22T22:12:39.515Z,23.03
2022-08-22T22:15:08.035Z,22.97
2022-08-22T22:17:35.723Z,22.96
2022-08-22T22:20:04.006Z,22.84
2022-08-22T22:22:31.818Z,22.80
2022-08-22T22:24:59.428Z,22.75
2022-08-22T22:27:27.624Z,22.85
2022-08-22T22:29:56.538Z,22.77
2022-08-22T22:32:24.316Z,22.67
2022-08-22T22:34:51.920Z,22.69
2022-08-22T22:37:20.272Z,22.71
2022-08-22T22:39:47.918Z,22.61
2022-08-22T22:42:15.695Z,22.66
2022-08-22T22:44:47.400Z,22.60
2022-08-22T22:47:16.582Z,22.66
2022-08-22T22:49:44.967Z,22.70
2022-08-22T22:52:12.578Z,22.58
2022-08-22T22:54:41.185Z,22.54
2022-08-22T22:57:12.778Z,22.55
2022-08-22T22:59:41.545Z,22.51
